Bewolking Meer informatie Parkstad Weather Satellite


Neerslagradar Meer informatie Parkstad Rain Snow Radar


Onweersbuien Meer informatie Parkstad Lighntning


24/7 Weercamera Meer informatie Parkstad Weathercam


Natuurbrandrisico
CBI






Het weer levert geen direct gevaar op in Parkstad.    Er zijn geen waarschuwingen afgegeven voor Parkstad (045)

METAR rapporten vliegvelden

   
EHBK - Beek Nederland
Gewijzigd: 20-06-2019 18:55
Wat regen mogelijk, Bewolking  
Wat regen mogelijk, Bewolking  
   Wind: Westen 14.8 km/h
Wind: Westen 14.8 km/h
Temperatuur: 19°C
Dauwpunt: 13°C
Vochtigheid: 68%
Barometer: 1013 hPa
Satelliet beelden: Bewolking
Zicht: meer dan 10 km
Bewolking: Gedeeltelijk bewolkt 945 m,
Grotendeels bewolkt 1067 m,
Bewolking 1189 m
EHBK 201655Z AUTO 28008KT 240V340 9999 -RA SCT031 BKN035 OVC039 19/13 Q1013 NOSIG
EHBK - Maastricht Nederland
Gewijzigd: 20-06-2019 18:55
Wat regen mogelijk, Bewolking  
Wat regen mogelijk, Bewolking  
   Wind: Westen 14.8 km/h
Wind: Westen 14.8 km/h
Temperatuur: 19°C
Dauwpunt: 13°C
Vochtigheid: 68%
Barometer: 1013 hPa
Satelliet beelden: Bewolking
Zicht: meer dan 10 km
Bewolking: Gedeeltelijk bewolkt 945 m,
Grotendeels bewolkt 1067 m,
Bewolking 1189 m
EHBK 201655Z AUTO 28008KT 240V340 9999 -RA SCT031 BKN035 OVC039 19/13 Q1013 NOSIG
EBLG - Liège België
Gewijzigd: 20-06-2019 18:50
Licht bewolkt  
Licht bewolkt  
   Wind: Westen 22.2 km/h
Wind: Westen 22.2 km/h
Temperatuur: 20°C
Dauwpunt: 11°C
Vochtigheid: 56%
Barometer: 1014 hPa
Satelliet beelden: Licht bewolkt
Zicht: meer dan 10 km
Bewolking: Licht bewolkt 914 m
EBLG 201650Z 28012KT 9999 FEW030 20/11 Q1014 NOSIG
EDDK - Köln/Bonn Duitsland
Gewijzigd: 20-06-2019 19:20
Licht bewolkt  
Licht bewolkt  
   Wind: ZW 9.3 km/h
Wind: ZW 9.3 km/h
Temperatuur: 20°C
Dauwpunt: 15°C
Vochtigheid: 73%
Barometer: 1014 hPa
Satelliet beelden: Licht bewolkt
Zicht: meer dan 10 km
Bewolking: Licht bewolkt 610 m
EDDK 201720Z 23005KT 190V270 9999 FEW020 20/15 Q1014 NOSIG
EDDL - Düsseldorf Duitsland
Gewijzigd: 20-06-2019 18:50
Nabijgelegen buien, Gedeeltelijk bewolkt  
Nabijgelegen buien, Gedeeltelijk bewolkt  
   Wind: WZW 14.8 km/h
Wind: WZW 14.8 km/h
Temperatuur: 20°C
Dauwpunt: 14°C
Vochtigheid: 69%
Barometer: 1013 hPa
Satelliet beelden: Gedeeltelijk bewolkt
Zicht: meer dan 10 km
Bewolking: Licht bewolkt 610 m,
Gedeeltelijk bewolkt 793 m
EDDL 201650Z 24008KT 9999 VCSH FEW020 SCT026CB 20/14 Q1013 TEMPO SHRA
EHEH - Eindhoven Nederland
Gewijzigd: 20-06-2019 18:55
Grotendeels bewolkt  
Grotendeels bewolkt  
   Wind: WNW 14.8 km/h
Wind: WNW 14.8 km/h
Temperatuur: 20°C
Dauwpunt: 13°C
Vochtigheid: 64%
Barometer: 1013 hPa
Satelliet beelden: Grotendeels bewolkt
Zicht: meer dan 10 km
Bewolking: Grotendeels bewolkt 853 m,
Grotendeels bewolkt 1158 m,
Grotendeels bewolkt 1311 m
EHEH 201655Z AUTO 29008KT 240V340 9999 BKN028CB BKN038 BKN043 20/13 Q1013 BLU 27009KT 9999 SCT032 SCT090 TEMPO 29012KT FEW022CB BKN040
ELLX - Luxemburg Luxemburg
Gewijzigd: 20-06-2019 18:50
Grotendeels bewolkt  
Grotendeels bewolkt  
   Wind: WNW 14.8 km/h
Wind: WNW 14.8 km/h
Temperatuur: 19°C
Dauwpunt: 14°C
Vochtigheid: 73%
Barometer: 1015 hPa
Satelliet beelden: Grotendeels bewolkt
Zicht: meer dan 10 km
Bewolking: Licht bewolkt 1219 m,
Gedeeltelijk bewolkt 1372 m,
Grotendeels bewolkt 2743 m
ELLX 201650Z 29008KT 250V320 9999 FEW040 SCT045 BKN090 19/14 Q1015 NOSIG
EGLL - London England
Gewijzigd: 20-06-2019 19:20
Gedeeltelijk bewolkt  
Gedeeltelijk bewolkt  
   Wind: WZW 27.8 km/h
Wind: WZW 27.8 km/h
Temperatuur: 18°C
Dauwpunt: 9°C
Vochtigheid: 56%
Barometer: 1014 hPa
Satelliet beelden: Gedeeltelijk bewolkt
Zicht: meer dan 10 km
Bewolking: Gedeeltelijk bewolkt 1280 m
EGLL 201720Z AUTO 24015KT 9999 SCT042 18/09 Q1014
EBAW - Antwerpen België
Gewijzigd: 20-06-2019 19:20
Grotendeels bewolkt  
Grotendeels bewolkt  
   Wind: NW 18.5 km/h
Wind: NW 18.5 km/h
Temperatuur: 19°C
Dauwpunt: 12°C
Vochtigheid: 64%
Barometer: 1014 hPa
Satelliet beelden: Grotendeels bewolkt
Zicht: meer dan 10 km
Bewolking: Grotendeels bewolkt 1494 m
EBAW 201720Z 32010KT 290V350 9999 BKN049 19/12 Q1014 NOSIG
EBOS - Oostende België
Gewijzigd: 20-06-2019 19:20
Licht bewolkt  
Licht bewolkt  
   Wind: Westen 29.6 km/h
Wind: Westen 29.6 km/h
Temperatuur: 17°C
Dauwpunt: 11°C
Vochtigheid: 68%
Barometer: 1015 hPa
Satelliet beelden: Licht bewolkt
Zicht: meer dan 10 km
Bewolking: Licht bewolkt 853 m
EBOS 201720Z 27016KT 9999 FEW028 17/11 Q1015 NOSIG
LEAL - La Nucia Spanje
Gewijzigd: 20-06-2019 19:00
Grotendeels bewolkt  
Grotendeels bewolkt  
   Wind: ONO 11.1 km/h
Wind: ONO 11.1 km/h
Temperatuur: 23°C
Dauwpunt: 19°C
Vochtigheid: 78%
Barometer: 1011 hPa
Satelliet beelden: Grotendeels bewolkt
Zicht: meer dan 10 km
Bewolking: Licht bewolkt 366 m,
Grotendeels bewolkt 549 m
LEAL 201700Z 07006KT 040V130 9999 FEW012 BKN018 23/19 Q1011 NOSIG
TNCA - Oranjestad Aruba
Gewijzigd: 20-06-2019 19:00
Gedeeltelijk bewolkt  
Gedeeltelijk bewolkt  
   Wind: Oosten 44.4 km/h
Wind: Oosten 44.4 km/h
Temperatuur: 31°C
Gevoelstemperatuur: 38°C
Dauwpunt: 25°C
Vochtigheid: 70%
Barometer: 1013 hPa
Satelliet beelden: Gedeeltelijk bewolkt
Zicht: meer dan 10 km
Bewolking: Gedeeltelijk bewolkt 579 m
TNCA 201700Z 09024KT 9999 SCT019 31/25 Q1013 NOSIG
TNCC - Willemstad Curacao
Gewijzigd: 20-06-2019 19:00
Licht bewolkt  
Licht bewolkt  
   Wind: Oosten 38.9 km/h<br />Gust to 38.9 km/h
Wind: Oosten 38.9 km/h
Gust to 38.9 km/h
Temperatuur: 31°C
Gevoelstemperatuur: 37°C
Dauwpunt: 24°C
Vochtigheid: 66%
Barometer: 1014 hPa
Satelliet beelden: Licht bewolkt
Zicht: meer dan 10 km
Bewolking: Licht bewolkt 610 m
TNCC 201700Z 10021G32KT 9999 FEW020 31/24 Q1014 NOSIG
MTPP - Port au Prince Haitië
Gewijzigd: 20-06-2019 18:00
Verouderd
Licht bewolkt  
Licht bewolkt  
   Wind: OZO 46.3 km/h
Wind: OZO 46.3 km/h
Temperatuur: 34°C
Gevoelstemperatuur: 37°C
Dauwpunt: 21°C
Vochtigheid: 47%
Barometer: 1015 hPa
Satelliet beelden: Licht bewolkt
Zicht: 9 km
Bewolking: Licht bewolkt 853 m
MTPP 201600Z 11025KT 9000 FEW028 34/21 Q1015 A2999
ENVA - Trondheim Noorwegen
Gewijzigd: 20-06-2019 19:20
Nabijgelegen buien, Grotendeels bewolkt  
Nabijgelegen buien, Grotendeels bewolkt  
   Wind: WNW 20.4 km/h
Wind: WNW 20.4 km/h
Temperatuur: 18°C
Dauwpunt: 11°C
Vochtigheid: 64%
Barometer: 1002 hPa
Satelliet beelden: Grotendeels bewolkt
Zicht: meer dan 10 km
Bewolking: Gedeeltelijk bewolkt 1524 m,
Grotendeels bewolkt 2073 m
ENVA 201720Z 29011KT 9999 VCSH SCT050CB BKN068 18/11 Q1002 TEMPO SHRA BKN012 SCT020CB RMK WIND 670FT 29015KT
ENBO - Bodø Noorwegen
Gewijzigd: 20-06-2019 19:20
Gedeeltelijk bewolkt  
Gedeeltelijk bewolkt  
   Wind: Oosten 35.2 km/h
Wind: Oosten 35.2 km/h
Temperatuur: 15°C
Dauwpunt: 8°C
Vochtigheid: 63%
Barometer: 1004 hPa
Satelliet beelden: Gedeeltelijk bewolkt
Zicht: meer dan 10 km
Bewolking: Licht bewolkt 1219 m,
Gedeeltelijk bewolkt 2134 m
ENBO 201720Z 09019KT 9999 FEW040 SCT070 15/08 Q1004 NOSIG
ETNG - Geilenkirchen Duitsland
Gewijzigd: 19-06-2019 18:50
Verouderd
Nabijgelegen onweer, Grotendeels bewolkt  
Nabijgelegen onweer, Grotendeels bewolkt  
   Wind: WNW 14.8 km/h
Wind: WNW 14.8 km/h
Temperatuur: 21°C
Dauwpunt: 15°C
Vochtigheid: 69%
Barometer: 1008 hPa
Satelliet beelden: Grotendeels bewolkt
Zicht: meer dan 10 km
Bewolking: Licht bewolkt 1219 m,
Grotendeels bewolkt 1829 m
ETNG 191650Z 29008KT 9999 VCTS FEW040CB BKN060 21/15 Q1008 RERA
 

Script ontwikkeld door  Saratoga-weather.org Aangepast voor de template door  Weerstation Leuven

U vindt ons ook hier:

Het Weer Aktueel

WOW Nederland KNMI

Vereniging voor Weerkunde en Klimatologie

UK Met Office Weather Observation Website (WOW)

WeatherCloud

Weather Underground

Awekas

Weatherlink IP

HAMweather, WeatherForYou, PWS Weather

Citizen Weather Observer Program (CWOP)

Apparatuur in gebruik:

Hardwareleverancier
Weerhuisje

Weerstation
Vantage Pro2+ UV

Weercomputer's
alix3d2 & wl330n

Weerprogramma's
Smartbedded

Satelliet NOAA's
WRX137 & KX137

Satelliet Eumetsat
Ayecka SR1 & Triax

Bliksemdetectie
Boltek StormTracker

Webleverancier
F-Service

Weerhuisje

Vantage Pro2+ UV

alix3d2 & wl330n

Smartbedded

WRX137 & KX137

Ayecka SR1 & Triax

Boltek StormTracker

F-Service